sensor_id;sensor_type;location;lat;lon;timestamp;pressure;altitude;pressure_sealevel;temperature;humidity
55801;BME280;41730;51.960;20.158;2023-03-19T00:01:50;100290.21;;;6.08;50.69
55801;BME280;41730;51.960;20.158;2023-03-19T00:04:19;100286.55;;;6.14;50.44
55801;BME280;41730;51.960;20.158;2023-03-19T00:06:49;100281.96;;;6.10;50.49
55801;BME280;41730;51.960;20.158;2023-03-19T00:09:19;100286.19;;;6.06;50.55
55801;BME280;41730;51.960;20.158;2023-03-19T00:11:49;100282.57;;;6.00;50.61
55801;BME280;41730;51.960;20.158;2023-03-19T00:14:18;100279.33;;;5.90;50.93
55801;BME280;41730;51.960;20.158;2023-03-19T00:16:47;100280.53;;;5.93;50.92
55801;BME280;41730;51.960;20.158;2023-03-19T00:19:17;100284.14;;;6.00;50.65
55801;BME280;41730;51.960;20.158;2023-03-19T00:21:46;100278.74;;;5.94;50.88
55801;BME280;41730;51.960;20.158;2023-03-19T00:24:16;100279.64;;;5.93;50.88
55801;BME280;41730;51.960;20.158;2023-03-19T00:26:45;100279.86;;;6.01;50.62
55801;BME280;41730;51.960;20.158;2023-03-19T00:29:15;100279.03;;;6.01;50.64
55801;BME280;41730;51.960;20.158;2023-03-19T00:31:44;100273.51;;;5.97;50.62
55801;BME280;41730;51.960;20.158;2023-03-19T00:34:13;100276.34;;;5.85;50.71
55801;BME280;41730;51.960;20.158;2023-03-19T00:36:45;100276.11;;;5.68;51.04
55801;BME280;41730;51.960;20.158;2023-03-19T00:39:15;100274.77;;;5.65;51.26
55801;BME280;41730;51.960;20.158;2023-03-19T00:41:44;100273.42;;;5.59;51.48
55801;BME280;41730;51.960;20.158;2023-03-19T00:44:18;100272.26;;;5.61;51.34
55801;BME280;41730;51.960;20.158;2023-03-19T00:46:47;100273.08;;;5.67;51.13
55801;BME280;41730;51.960;20.158;2023-03-19T00:49:17;100274.95;;;5.67;51.16
55801;BME280;41730;51.960;20.158;2023-03-19T00:51:46;100277.02;;;5.65;51.19
55801;BME280;41730;51.960;20.158;2023-03-19T00:54:15;100275.45;;;5.65;51.09
55801;BME280;41730;51.960;20.158;2023-03-19T00:56:45;100273.92;;;5.62;51.27
55801;BME280;41730;51.960;20.158;2023-03-19T00:59:15;100276.95;;;5.60;51.25
55801;BME280;41730;51.960;20.158;2023-03-19T01:01:45;100275.64;;;5.48;51.42
55801;BME280;41730;51.960;20.158;2023-03-19T01:04:17;100281.61;;;5.44;51.53
55801;BME280;41730;51.960;20.158;2023-03-19T01:06:47;100283.71;;;5.38;51.64
55801;BME280;41730;51.960;20.158;2023-03-19T01:09:17;100283.89;;;5.41;51.72
55801;BME280;41730;51.960;20.158;2023-03-19T01:11:46;100286.52;;;5.44;51.38
55801;BME280;41730;51.960;20.158;2023-03-19T01:14:16;100285.63;;;5.35;51.81
55801;BME280;41730;51.960;20.158;2023-03-19T01:16:45;100282.34;;;5.31;51.70
55801;BME280;41730;51.960;20.158;2023-03-19T01:19:14;100281.77;;;5.23;51.99
55801;BME280;41730;51.960;20.158;2023-03-19T01:21:44;100282.48;;;5.18;52.05
55801;BME280;41730;51.960;20.158;2023-03-19T01:24:13;100279.66;;;5.21;51.80
55801;BME280;41730;51.960;20.158;2023-03-19T01:26:45;100276.83;;;5.25;51.81
55801;BME280;41730;51.960;20.158;2023-03-19T01:29:15;100275.86;;;5.24;51.93
55801;BME280;41730;51.960;20.158;2023-03-19T01:31:44;100274.65;;;5.29;51.59
55801;BME280;41730;51.960;20.158;2023-03-19T01:34:13;100274.34;;;5.17;51.83
55801;BME280;41730;51.960;20.158;2023-03-19T01:36:42;100268.80;;;5.08;52.23
55801;BME280;41730;51.960;20.158;2023-03-19T01:39:11;100272.27;;;5.11;52.03
55801;BME280;41730;51.960;20.158;2023-03-19T01:41:41;100267.17;;;5.09;52.22
55801;BME280;41730;51.960;20.158;2023-03-19T01:44:25;100271.77;;;5.02;52.31
55801;BME280;41730;51.960;20.158;2023-03-19T01:46:54;100274.88;;;4.96;52.36
55801;BME280;41730;51.960;20.158;2023-03-19T01:49:26;100272.47;;;5.05;52.35
55801;BME280;41730;51.960;20.158;2023-03-19T01:51:56;100275.44;;;5.05;52.31
55801;BME280;41730;51.960;20.158;2023-03-19T01:54:28;100276.14;;;4.96;52.55
55801;BME280;41730;51.960;20.158;2023-03-19T01:57:02;100275.27;;;4.83;52.65
55801;BME280;41730;51.960;20.158;2023-03-19T01:59:35;100271.52;;;4.85;52.75
55801;BME280;41730;51.960;20.158;2023-03-19T02:02:08;100270.13;;;4.82;52.85
55801;BME280;41730;51.960;20.158;2023-03-19T02:04:41;100268.71;;;4.79;52.94
55801;BME280;41730;51.960;20.158;2023-03-19T02:07:11;100267.63;;;4.80;52.89
55801;BME280;41730;51.960;20.158;2023-03-19T02:09:41;100271.75;;;4.78;52.97
55801;BME280;41730;51.960;20.158;2023-03-19T02:12:12;100274.42;;;4.71;53.17
55801;BME280;41730;51.960;20.158;2023-03-19T02:14:41;100277.45;;;4.73;53.25
55801;BME280;41730;51.960;20.158;2023-03-19T02:17:12;100276.33;;;4.77;53.06
55801;BME280;41730;51.960;20.158;2023-03-19T02:19:48;100279.64;;;4.76;53.10
55801;BME280;41730;51.960;20.158;2023-03-19T02:22:21;100280.41;;;4.70;53.18
55801;BME280;41730;51.960;20.158;2023-03-19T02:24:54;100280.08;;;4.69;53.24
55801;BME280;41730;51.960;20.158;2023-03-19T02:27:24;100280.98;;;4.69;53.22
55801;BME280;41730;51.960;20.158;2023-03-19T02:29:54;100281.95;;;4.72;53.19
55801;BME280;41730;51.960;20.158;2023-03-19T02:32:23;100283.90;;;4.69;53.25
55801;BME280;41730;51.960;20.158;2023-03-19T02:34:52;100286.14;;;4.66;53.36
55801;BME280;41730;51.960;20.158;2023-03-19T02:37:25;100289.22;;;4.67;53.27
55801;BME280;41730;51.960;20.158;2023-03-19T02:40:00;100284.58;;;4.67;53.56
55801;BME280;41730;51.960;20.158;2023-03-19T02:42:31;100283.54;;;4.63;53.46
55801;BME280;41730;51.960;20.158;2023-03-19T02:45:01;100283.52;;;4.73;53.11
55801;BME280;41730;51.960;20.158;2023-03-19T02:47:30;100281.85;;;4.65;53.30
55801;BME280;41730;51.960;20.158;2023-03-19T02:50:01;100285.67;;;4.63;53.30
55801;BME280;41730;51.960;20.158;2023-03-19T02:52:30;100283.67;;;4.70;53.21
55801;BME280;41730;51.960;20.158;2023-03-19T02:55:00;100282.80;;;4.73;53.08
55801;BME280;41730;51.960;20.158;2023-03-19T02:57:29;100288.19;;;4.73;53.11
55801;BME280;41730;51.960;20.158;2023-03-19T02:59:58;100286.61;;;4.67;53.33
55801;BME280;41730;51.960;20.158;2023-03-19T03:02:27;100284.17;;;4.64;53.41
55801;BME280;41730;51.960;20.158;2023-03-19T03:04:56;100280.65;;;4.65;53.31
55801;BME280;41730;51.960;20.158;2023-03-19T03:07:26;100286.52;;;4.63;53.29
55801;BME280;41730;51.960;20.158;2023-03-19T03:09:55;100286.42;;;4.68;53.36
55801;BME280;41730;51.960;20.158;2023-03-19T03:12:25;100279.61;;;4.86;53.08
55801;BME280;41730;51.960;20.158;2023-03-19T03:14:55;100274.48;;;4.91;52.91
55801;BME280;41730;51.960;20.158;2023-03-19T03:17:25;100274.05;;;4.89;53.05
55801;BME280;41730;51.960;20.158;2023-03-19T03:19:55;100278.65;;;4.91;52.99
55801;BME280;41730;51.960;20.158;2023-03-19T03:22:24;100280.27;;;4.81;53.30
55801;BME280;41730;51.960;20.158;2023-03-19T03:24:53;100276.65;;;4.83;53.21
55801;BME280;41730;51.960;20.158;2023-03-19T03:27:22;100276.77;;;4.99;53.14
55801;BME280;41730;51.960;20.158;2023-03-19T03:29:52;100277.80;;;5.06;52.62
55801;BME280;41730;51.960;20.158;2023-03-19T03:32:22;100276.77;;;4.97;52.92
55801;BME280;41730;51.960;20.158;2023-03-19T03:34:51;100275.77;;;4.96;52.96
55801;BME280;41730;51.960;20.158;2023-03-19T03:37:20;100272.80;;;5.02;53.05
55801;BME280;41730;51.960;20.158;2023-03-19T03:39:48;100270.77;;;5.07;52.85
55801;BME280;41730;51.960;20.158;2023-03-19T03:42:18;100271.04;;;5.11;52.75
55801;BME280;41730;51.960;20.158;2023-03-19T03:44:48;100267.63;;;4.98;53.07
55801;BME280;41730;51.960;20.158;2023-03-19T03:47:18;100264.63;;;5.02;52.99
55801;BME280;41730;51.960;20.158;2023-03-19T03:49:47;100264.77;;;5.09;52.82
55801;BME280;41730;51.960;20.158;2023-03-19T03:52:16;100263.35;;;5.09;53.05
55801;BME280;41730;51.960;20.158;2023-03-19T03:54:45;100265.27;;;5.09;52.87
55801;BME280;41730;51.960;20.158;2023-03-19T03:57:14;100270.84;;;5.03;52.85
55801;BME280;41730;51.960;20.158;2023-03-19T03:59:43;100272.42;;;5.11;52.90
55801;BME280;41730;51.960;20.158;2023-03-19T04:02:13;100273.98;;;5.06;52.77
55801;BME280;41730;51.960;20.158;2023-03-19T04:04:42;100270.70;;;5.08;52.84
55801;BME280;41730;51.960;20.158;2023-03-19T04:07:12;100275.66;;;5.07;52.80
55801;BME280;41730;51.960;20.158;2023-03-19T04:09:41;100276.40;;;5.00;52.98
55801;BME280;41730;51.960;20.158;2023-03-19T04:12:12;100271.61;;;4.86;53.05
55801;BME280;41730;51.960;20.158;2023-03-19T04:14:41;100271.06;;;4.93;53.06
55801;BME280;41730;51.960;20.158;2023-03-19T04:17:11;100270.11;;;4.97;52.67
55801;BME280;41730;51.960;20.158;2023-03-19T04:19:40;100272.40;;;4.97;52.67
55801;BME280;41730;51.960;20.158;2023-03-19T04:22:10;100272.05;;;4.97;52.86
55801;BME280;41730;51.960;20.158;2023-03-19T04:24:40;100273.55;;;4.98;52.41
55801;BME280;41730;51.960;20.158;2023-03-19T04:27:11;100272.81;;;4.96;52.55
55801;BME280;41730;51.960;20.158;2023-03-19T04:29:47;100281.13;;;4.81;52.74
55801;BME280;41730;51.960;20.158;2023-03-19T04:32:22;100287.11;;;4.70;52.79
55801;BME280;41730;51.960;20.158;2023-03-19T04:34:54;100284.75;;;4.66;52.84
55801;BME280;41730;51.960;20.158;2023-03-19T04:37:25;100290.52;;;4.63;52.95
55801;BME280;41730;51.960;20.158;2023-03-19T04:39:55;100288.61;;;4.68;52.94
55801;BME280;41730;51.960;20.158;2023-03-19T04:42:24;100288.10;;;4.65;53.05
55801;BME280;41730;51.960;20.158;2023-03-19T04:44:53;100289.67;;;4.56;53.29
55801;BME280;41730;51.960;20.158;2023-03-19T04:47:23;100287.20;;;4.54;53.41
55801;BME280;41730;51.960;20.158;2023-03-19T04:49:53;100291.73;;;4.54;53.37
55801;BME280;41730;51.960;20.158;2023-03-19T04:52:22;100291.73;;;4.47;53.59
55801;BME280;41730;51.960;20.158;2023-03-19T04:54:52;100287.17;;;4.45;53.61
55801;BME280;41730;51.960;20.158;2023-03-19T04:57:21;100287.94;;;4.41;53.76
55801;BME280;41730;51.960;20.158;2023-03-19T04:59:51;100291.45;;;4.40;53.91
55801;BME280;41730;51.960;20.158;2023-03-19T05:02:20;100281.33;;;4.35;54.13
55801;BME280;41730;51.960;20.158;2023-03-19T05:04:50;100285.29;;;4.41;54.12
55801;BME280;41730;51.960;20.158;2023-03-19T05:07:20;100284.20;;;4.48;54.21
55801;BME280;41730;51.960;20.158;2023-03-19T05:09:49;100280.67;;;4.56;54.15
55801;BME280;41730;51.960;20.158;2023-03-19T05:12:18;100283.48;;;4.70;54.13
55801;BME280;41730;51.960;20.158;2023-03-19T05:14:47;100280.38;;;4.76;53.91
55801;BME280;41730;51.960;20.158;2023-03-19T05:17:17;100277.95;;;4.85;53.99
55801;BME280;41730;51.960;20.158;2023-03-19T05:19:46;100278.58;;;5.04;54.28
55801;BME280;41730;51.960;20.158;2023-03-19T05:22:15;100278.29;;;5.36;54.62
55801;BME280;41730;51.960;20.158;2023-03-19T05:24:45;100277.81;;;5.86;54.53
55801;BME280;41730;51.960;20.158;2023-03-19T05:27:17;100284.98;;;6.42;54.30
55801;BME280;41730;51.960;20.158;2023-03-19T05:29:50;100281.73;;;6.99;54.01
55801;BME280;41730;51.960;20.158;2023-03-19T05:32:19;100279.43;;;7.46;53.69
55801;BME280;41730;51.960;20.158;2023-03-19T05:34:49;100282.02;;;8.04;53.09
55801;BME280;41730;51.960;20.158;2023-03-19T05:37:19;100282.05;;;8.50;52.45
55801;BME280;41730;51.960;20.158;2023-03-19T05:39:50;100285.11;;;8.76;51.70
55801;BME280;41730;51.960;20.158;2023-03-19T05:42:19;100290.52;;;8.86;51.49
55801;BME280;41730;51.960;20.158;2023-03-19T05:44:48;100286.91;;;8.98;52.06
55801;BME280;41730;51.960;20.158;2023-03-19T05:47:18;100281.91;;;9.28;51.48
55801;BME280;41730;51.960;20.158;2023-03-19T05:49:47;100282.90;;;9.61;51.02
55801;BME280;41730;51.960;20.158;2023-03-19T05:52:17;100277.54;;;9.71;50.67
55801;BME280;41730;51.960;20.158;2023-03-19T05:54:47;100274.05;;;9.75;49.95
55801;BME280;41730;51.960;20.158;2023-03-19T05:57:18;100273.45;;;9.76;49.90
55801;BME280;41730;51.960;20.158;2023-03-19T05:59:47;100272.96;;;9.89;49.67
55801;BME280;41730;51.960;20.158;2023-03-19T06:02:17;100274.70;;;9.98;49.44
55801;BME280;41730;51.960;20.158;2023-03-19T06:04:48;100273.83;;;10.18;49.53
55801;BME280;41730;51.960;20.158;2023-03-19T06:07:18;100274.89;;;10.42;49.16
55801;BME280;41730;51.960;20.158;2023-03-19T06:09:48;100275.88;;;10.69;49.08
55801;BME280;41730;51.960;20.158;2023-03-19T06:12:18;100274.95;;;11.01;48.44
55801;BME280;41730;51.960;20.158;2023-03-19T06:14:48;100276.08;;;11.25;48.05
55801;BME280;41730;51.960;20.158;2023-03-19T06:17:17;100280.67;;;11.36;47.69
55801;BME280;41730;51.960;20.158;2023-03-19T06:19:46;100279.81;;;11.44;46.97
55801;BME280;41730;51.960;20.158;2023-03-19T06:22:15;100279.39;;;11.34;46.90
55801;BME280;41730;51.960;20.158;2023-03-19T06:24:44;100284.02;;;11.29;46.87
55801;BME280;41730;51.960;20.158;2023-03-19T06:27:13;100283.92;;;11.30;46.04
55801;BME280;41730;51.960;20.158;2023-03-19T06:29:43;100290.31;;;11.25;45.85
55801;BME280;41730;51.960;20.158;2023-03-19T06:32:13;100287.98;;;11.19;45.66
55801;BME280;41730;51.960;20.158;2023-03-19T06:34:43;100291.36;;;11.07;45.71
55801;BME280;41730;51.960;20.158;2023-03-19T06:37:12;100288.86;;;11.09;45.34
55801;BME280;41730;51.960;20.158;2023-03-19T06:39:42;100293.90;;;11.01;45.32
55801;BME280;41730;51.960;20.158;2023-03-19T06:42:11;100298.50;;;10.95;45.40
55801;BME280;41730;51.960;20.158;2023-03-19T06:44:40;100302.64;;;10.89;45.52
55801;BME280;41730;51.960;20.158;2023-03-19T06:47:11;100311.65;;;10.69;46.27
55801;BME280;41730;51.960;20.158;2023-03-19T06:49:41;100314.73;;;10.81;46.57
55801;BME280;41730;51.960;20.158;2023-03-19T06:52:10;100315.64;;;11.01;46.51
55801;BME280;41730;51.960;20.158;2023-03-19T06:54:39;100314.77;;;11.27;46.43
55801;BME280;41730;51.960;20.158;2023-03-19T06:57:09;100310.38;;;11.52;46.34
55801;BME280;41730;51.960;20.158;2023-03-19T06:59:38;100306.63;;;11.75;46.22
55801;BME280;41730;51.960;20.158;2023-03-19T07:02:08;100308.67;;;12.00;46.04
55801;BME280;41730;51.960;20.158;2023-03-19T07:04:37;100310.40;;;12.39;45.77
55801;BME280;41730;51.960;20.158;2023-03-19T07:07:06;100309.30;;;12.65;44.78
55801;BME280;41730;51.960;20.158;2023-03-19T07:09:35;100304.77;;;12.71;44.98
55801;BME280;41730;51.960;20.158;2023-03-19T07:12:05;100304.58;;;12.86;44.67
55801;BME280;41730;51.960;20.158;2023-03-19T07:14:34;100310.58;;;13.05;44.33
55801;BME280;41730;51.960;20.158;2023-03-19T07:17:05;100306.79;;;13.12;44.22
55801;BME280;41730;51.960;20.158;2023-03-19T07:19:36;100308.30;;;13.13;44.26
55801;BME280;41730;51.960;20.158;2023-03-19T07:22:05;100309.17;;;13.23;44.10
55801;BME280;41730;51.960;20.158;2023-03-19T07:24:35;100309.13;;;13.37;43.86
55801;BME280;41730;51.960;20.158;2023-03-19T07:27:04;100316.37;;;13.46;43.44
55801;BME280;41730;51.960;20.158;2023-03-19T07:29:33;100313.87;;;13.56;43.23
55801;BME280;41730;51.960;20.158;2023-03-19T07:32:03;100318.73;;;13.57;43.17
55801;BME280;41730;51.960;20.158;2023-03-19T07:34:32;100319.77;;;13.70;43.25
55801;BME280;41730;51.960;20.158;2023-03-19T07:37:01;100320.88;;;13.70;43.10
55801;BME280;41730;51.960;20.158;2023-03-19T07:39:30;100321.80;;;13.67;43.19
55801;BME280;41730;51.960;20.158;2023-03-19T07:42:00;100320.34;;;13.75;43.46
55801;BME280;41730;51.960;20.158;2023-03-19T07:44:29;100321.04;;;13.84;42.77
55801;BME280;41730;51.960;20.158;2023-03-19T07:46:59;100324.17;;;13.81;42.80
55801;BME280;41730;51.960;20.158;2023-03-19T07:49:29;100319.02;;;13.76;42.79
55801;BME280;41730;51.960;20.158;2023-03-19T07:51:58;100326.81;;;13.55;42.53
55801;BME280;41730;51.960;20.158;2023-03-19T07:54:28;100332.09;;;13.34;43.05
55801;BME280;41730;51.960;20.158;2023-03-19T07:56:58;100328.60;;;13.28;43.20
55801;BME280;41730;51.960;20.158;2023-03-19T07:59:28;100325.94;;;13.28;43.17
55801;BME280;41730;51.960;20.158;2023-03-19T08:01:57;100329.25;;;13.32;43.23
55801;BME280;41730;51.960;20.158;2023-03-19T08:04:27;100324.60;;;13.37;42.84
55801;BME280;41730;51.960;20.158;2023-03-19T08:06:56;100320.94;;;13.31;42.84
55801;BME280;41730;51.960;20.158;2023-03-19T08:09:27;100328.20;;;13.22;42.66
55801;BME280;41730;51.960;20.158;2023-03-19T08:11:57;100326.94;;;13.23;43.21
55801;BME280;41730;51.960;20.158;2023-03-19T08:14:27;100320.92;;;13.41;43.18
55801;BME280;41730;51.960;20.158;2023-03-19T08:16:56;100311.84;;;13.66;42.97
55801;BME280;41730;51.960;20.158;2023-03-19T08:19:26;100309.50;;;13.84;42.79
55801;BME280;41730;51.960;20.158;2023-03-19T08:21:56;100309.61;;;14.09;42.63
55801;BME280;41730;51.960;20.158;2023-03-19T08:24:26;100310.23;;;14.29;42.38
55801;BME280;41730;51.960;20.158;2023-03-19T08:26:55;100311.96;;;14.44;42.40
55801;BME280;41730;51.960;20.158;2023-03-19T08:29:24;100307.59;;;14.64;42.33
55801;BME280;41730;51.960;20.158;2023-03-19T08:31:54;100312.03;;;14.80;41.92
55801;BME280;41730;51.960;20.158;2023-03-19T08:34:24;100310.60;;;14.68;41.86
55801;BME280;41730;51.960;20.158;2023-03-19T08:36:54;100306.90;;;14.51;41.80
55801;BME280;41730;51.960;20.158;2023-03-19T08:39:23;100308.98;;;14.53;42.14
55801;BME280;41730;51.960;20.158;2023-03-19T08:41:52;100305.37;;;14.58;42.04
55801;BME280;41730;51.960;20.158;2023-03-19T08:44:21;100310.40;;;14.61;42.10
55801;BME280;41730;51.960;20.158;2023-03-19T08:46:50;100311.49;;;14.64;41.97
55801;BME280;41730;51.960;20.158;2023-03-19T08:49:20;100310.56;;;14.68;41.88
55801;BME280;41730;51.960;20.158;2023-03-19T08:51:49;100310.08;;;14.69;41.80
55801;BME280;41730;51.960;20.158;2023-03-19T08:54:18;100310.30;;;14.63;41.72
55801;BME280;41730;51.960;20.158;2023-03-19T08:56:50;100315.33;;;14.57;41.77
55801;BME280;41730;51.960;20.158;2023-03-19T08:59:20;100314.08;;;14.54;41.88
55801;BME280;41730;51.960;20.158;2023-03-19T09:01:52;100316.80;;;14.53;41.88
55801;BME280;41730;51.960;20.158;2023-03-19T09:04:22;100312.98;;;14.50;42.09
55801;BME280;41730;51.960;20.158;2023-03-19T09:06:52;100313.42;;;14.46;42.29
55801;BME280;41730;51.960;20.158;2023-03-19T09:09:23;100314.65;;;14.53;42.51
55801;BME280;41730;51.960;20.158;2023-03-19T09:11:53;100312.84;;;14.63;42.44
55801;BME280;41730;51.960;20.158;2023-03-19T09:14:22;100310.80;;;14.67;42.32
55801;BME280;41730;51.960;20.158;2023-03-19T09:16:51;100313.06;;;14.77;42.32
55801;BME280;41730;51.960;20.158;2023-03-19T09:19:22;100313.73;;;14.97;42.25
55801;BME280;41730;51.960;20.158;2023-03-19T09:21:52;100314.62;;;15.09;42.03
55801;BME280;41730;51.960;20.158;2023-03-19T09:24:22;100309.02;;;15.16;41.97
55801;BME280;41730;51.960;20.158;2023-03-19T09:26:52;100308.93;;;15.32;42.00
55801;BME280;41730;51.960;20.158;2023-03-19T09:29:22;100305.77;;;15.48;41.95
55801;BME280;41730;51.960;20.158;2023-03-19T09:31:50;100302.27;;;15.60;41.80
55801;BME280;41730;51.960;20.158;2023-03-19T09:34:20;100300.95;;;15.67;41.43
55801;BME280;41730;51.960;20.158;2023-03-19T09:36:49;100299.54;;;15.74;41.49
55801;BME280;41730;51.960;20.158;2023-03-19T09:39:18;100293.67;;;15.98;41.47
55801;BME280;41730;51.960;20.158;2023-03-19T09:41:59;100296.05;;;16.25;41.11
55801;BME280;41730;51.960;20.158;2023-03-19T09:44:34;100292.55;;;16.33;41.02
55801;BME280;41730;51.960;20.158;2023-03-19T09:47:26;100290.42;;;16.41;40.49
55801;BME280;41730;51.960;20.158;2023-03-19T09:50:00;100293.52;;;16.41;40.39
55801;BME280;41730;51.960;20.158;2023-03-19T09:52:37;100291.34;;;16.34;40.51
55801;BME280;41730;51.960;20.158;2023-03-19T09:55:17;100298.25;;;16.27;40.16
55801;BME280;41730;51.960;20.158;2023-03-19T09:57:49;100298.79;;;16.29;40.44
55801;BME280;41730;51.960;20.158;2023-03-19T10:00:23;100297.19;;;16.39;40.13
55801;BME280;41730;51.960;20.158;2023-03-19T10:02:57;100295.05;;;16.24;39.96
55801;BME280;41730;51.960;20.158;2023-03-19T10:05:43;100291.33;;;16.21;39.78
55801;BME280;41730;51.960;20.158;2023-03-19T10:08:25;100292.17;;;16.13;39.51
55801;BME280;41730;51.960;20.158;2023-03-19T10:11:06;100294.91;;;15.98;39.66
55801;BME280;41730;51.960;20.158;2023-03-19T10:13:54;100292.06;;;16.02;39.72
55801;BME280;41730;51.960;20.158;2023-03-19T10:16:26;100287.80;;;15.95;40.02
55801;BME280;41730;51.960;20.158;2023-03-19T10:18:58;100289.72;;;15.92;40.36
55801;BME280;41730;51.960;20.158;2023-03-19T10:21:31;100286.48;;;15.84;40.52
55801;BME280;41730;51.960;20.158;2023-03-19T10:24:04;100294.32;;;15.92;40.67
55801;BME280;41730;51.960;20.158;2023-03-19T10:34:12;100297.27;;;16.53;39.67
55801;BME280;41730;51.960;20.158;2023-03-19T10:36:59;100292.52;;;16.45;39.78
55801;BME280;41730;51.960;20.158;2023-03-19T10:39:36;100290.43;;;16.33;39.84
55801;BME280;41730;51.960;20.158;2023-03-19T10:42:24;100288.34;;;16.16;39.90
55801;BME280;41730;51.960;20.158;2023-03-19T10:45:41;100286.27;;;16.10;40.07
55801;BME280;41730;51.960;20.158;2023-03-19T10:49:03;100282.95;;;16.12;39.60
55801;BME280;41730;51.960;20.158;2023-03-19T10:51:35;100280.16;;;16.08;39.85
55801;BME280;41730;51.960;20.158;2023-03-19T10:54:21;100282.10;;;15.92;40.00
55801;BME280;41730;51.960;20.158;2023-03-19T10:56:55;100280.14;;;15.84;40.06
55801;BME280;41730;51.960;20.158;2023-03-19T10:59:32;100283.00;;;15.81;40.16
55801;BME280;41730;51.960;20.158;2023-03-19T11:02:16;100279.85;;;15.70;40.41
55801;BME280;41730;51.960;20.158;2023-03-19T11:04:45;100273.48;;;15.70;40.18
55801;BME280;41730;51.960;20.158;2023-03-19T11:07:18;100268.93;;;15.71;40.10
55801;BME280;41730;51.960;20.158;2023-03-19T11:12:55;100264.19;;;15.78;40.51
55801;BME280;41730;51.960;20.158;2023-03-19T11:15:36;100267.08;;;15.97;40.51
55801;BME280;41730;51.960;20.158;2023-03-19T11:18:35;100263.51;;;16.11;40.46
55801;BME280;41730;51.960;20.158;2023-03-19T11:21:23;100247.62;;;16.19;40.22
55801;BME280;41730;51.960;20.158;2023-03-19T11:23:59;100249.00;;;16.18;39.82
55801;BME280;41730;51.960;20.158;2023-03-19T11:26:30;100252.30;;;16.10;39.79
55801;BME280;41730;51.960;20.158;2023-03-19T11:29:10;100254.02;;;15.95;40.11
55801;BME280;41730;51.960;20.158;2023-03-19T11:31:47;100246.63;;;15.95;40.14
55801;BME280;41730;51.960;20.158;2023-03-19T11:34:34;100246.11;;;16.00;40.47
55801;BME280;41730;51.960;20.158;2023-03-19T11:37:36;100237.27;;;16.20;40.31
55801;BME280;41730;51.960;20.158;2023-03-19T11:40:30;100227.34;;;16.29;40.21
55801;BME280;41730;51.960;20.158;2023-03-19T11:43:19;100230.09;;;16.28;39.80
55801;BME280;41730;51.960;20.158;2023-03-19T11:46:01;100229.52;;;16.22;40.03
55801;BME280;41730;51.960;20.158;2023-03-19T11:49:07;100227.75;;;16.42;39.68
55801;BME280;41730;51.960;20.158;2023-03-19T11:51:43;100223.75;;;16.53;38.86
55801;BME280;41730;51.960;20.158;2023-03-19T11:54:22;100228.81;;;16.42;39.00
55801;BME280;41730;51.960;20.158;2023-03-19T11:56:59;100228.23;;;16.32;39.46
55801;BME280;41730;51.960;20.158;2023-03-19T11:59:47;100231.90;;;16.43;39.67
55801;BME280;41730;51.960;20.158;2023-03-19T12:02:54;100232.41;;;16.50;39.72
55801;BME280;41730;51.960;20.158;2023-03-19T12:05:28;100228.17;;;16.61;39.56
55801;BME280;41730;51.960;20.158;2023-03-19T12:08:08;100223.12;;;16.66;39.27
55801;BME280;41730;51.960;20.158;2023-03-19T12:18:20;100208.16;;;16.99;39.36
55801;BME280;41730;51.960;20.158;2023-03-19T12:21:29;100199.63;;;17.10;38.84
55801;BME280;41730;51.960;20.158;2023-03-19T12:24:15;100195.11;;;16.95;39.13
55801;BME280;41730;51.960;20.158;2023-03-19T12:27:11;100202.11;;;16.95;38.89
55801;BME280;41730;51.960;20.158;2023-03-19T12:29:50;100196.94;;;16.96;38.91
55801;BME280;41730;51.960;20.158;2023-03-19T12:32:37;100193.08;;;16.96;39.06
55801;BME280;41730;51.960;20.158;2023-03-19T12:35:12;100192.77;;;17.05;38.83
55801;BME280;41730;51.960;20.158;2023-03-19T12:37:49;100188.36;;;17.00;38.83
55801;BME280;41730;51.960;20.158;2023-03-19T12:40:26;100193.38;;;16.99;38.82
55801;BME280;41730;51.960;20.158;2023-03-19T12:42:59;100190.80;;;16.94;38.65
55801;BME280;41730;51.960;20.158;2023-03-19T12:45:32;100190.95;;;16.96;38.77
55801;BME280;41730;51.960;20.158;2023-03-19T12:48:06;100183.99;;;16.90;38.37
55801;BME280;41730;51.960;20.158;2023-03-19T12:50:44;100185.11;;;16.91;38.41
55801;BME280;41730;51.960;20.158;2023-03-19T12:53:27;100190.45;;;16.94;38.44
55801;BME280;41730;51.960;20.158;2023-03-19T12:56:03;100185.70;;;17.00;38.00
55801;BME280;41730;51.960;20.158;2023-03-19T12:58:39;100184.78;;;16.89;37.72
55801;BME280;41730;51.960;20.158;2023-03-19T13:01:17;100185.14;;;16.81;37.66
55801;BME280;41730;51.960;20.158;2023-03-19T13:03:55;100185.39;;;16.78;37.10
55801;BME280;41730;51.960;20.158;2023-03-19T13:06:29;100177.79;;;16.76;36.88
55801;BME280;41730;51.960;20.158;2023-03-19T13:09:04;100178.23;;;16.63;36.88
55801;BME280;41730;51.960;20.158;2023-03-19T13:11:45;100181.70;;;16.49;37.27
55801;BME280;41730;51.960;20.158;2023-03-19T13:14:21;100180.40;;;16.39;37.52
55801;BME280;41730;51.960;20.158;2023-03-19T13:17:00;100172.67;;;16.35;37.49
55801;BME280;41730;51.960;20.158;2023-03-19T13:19:36;100169.23;;;16.38;37.50
55801;BME280;41730;51.960;20.158;2023-03-19T13:22:11;100169.83;;;16.42;37.03
55801;BME280;41730;51.960;20.158;2023-03-19T13:24:42;100173.11;;;16.43;37.32
55801;BME280;41730;51.960;20.158;2023-03-19T13:27:17;100173.38;;;16.44;37.60
55801;BME280;41730;51.960;20.158;2023-03-19T13:30:01;100165.38;;;16.41;37.44
55801;BME280;41730;51.960;20.158;2023-03-19T13:32:40;100162.55;;;16.43;37.56